P/v Golden Gate — WDE5665 — position and weather

sailwx.info

Track history (hours):
 
Tides and Currents Weather Stations Pressure Air Temp Water Temp Dewpoint Dewpoint Depression Visibility Wind Speed Wind Dir Waves Ship Positions

P/v Golden Gate

Owner: San Francisco Bar Pilots Benevolent and Protective, San Francisco, CA. More information available from US FCC via Universal Licensing System and Coast Guard Vessel Documentation Center.

Last reported at 2014-Dec-21 19:33 UTC. Time now 2014-Dec-21 20:07 UTC.
Position N 37°48' W 122°24'.

Length 23 m; draft 2 m.

Type: Pilot. MMSI: 367370010.

Date/timePositionNaut miles runAvg speedWind from/ knotsBaromVisibWave heightAir tempDewpointWater temp
2014-Dec-21 19:33N 37°48' W 122°24'0 0.0
2014-Dec-21 18:33N 37°48' W 122°24'0 0.0
2014-Dec-21 17:34N 37°48' W 122°24'0 0.0
2014-Dec-21 16:33N 37°48' W 122°24'0 0.0
2014-Dec-21 15:33N 37°48' W 122°24'0 0.0
2014-Dec-21 14:34N 37°48' W 122°24'0 0.0
2014-Dec-21 13:34N 37°48' W 122°24'0 0.0
2014-Dec-21 12:33N 37°48' W 122°24'10 9.7
2014-Dec-21 11:34N 37°47' W 122°36'1312.4
2014-Dec-21 10:33N 37°45' W 122°20'4 4.2
2014-Dec-21 09:33N 37°48' W 122°24'0 0.0
2014-Dec-21 08:33N 37°48' W 122°24'0 0.0
2014-Dec-21 07:33N 37°48' W 122°24'0 0.0
2014-Dec-21 06:33N 37°48' W 122°24'0 0.0
2014-Dec-21 05:33N 37°48' W 122°24'0 0.0
2014-Dec-21 04:33N 37°48' W 122°24'0 0.0
2014-Dec-21 03:33N 37°48' W 122°24'0 0.0
2014-Dec-21 02:33N 37°48' W 122°24'4 4.3
2014-Dec-21 01:33N 37°45' W 122°20'4 4.3
2014-Dec-21 00:33N 37°48' W 122°24'0 0.0
2014-Dec-20 23:33N 37°48' W 122°24'0 0.0
2014-Dec-20 22:33N 37°48' W 122°24'0 0.0
2014-Dec-20 21:33N 37°48' W 122°24'0 0.0
2014-Dec-20 20:33N 37°48' W 122°24'1 1.1
2014-Dec-20 19:33N 37°49' W 122°24'1 0.9
2014-Dec-20 18:33N 37°49' W 122°25'4 4.0
2014-Dec-20 17:34N 37°46' W 122°21'3 2.8
2014-Dec-20 16:34N 37°48' W 122°24'4 3.5
2014-Dec-20 15:33N 37°49' W 122°19'0 0.2
2014-Dec-20 14:34N 37°49' W 122°19'4 3.6
2014-Dec-20 13:33N 37°48' W 122°24'2 2.3
2014-Dec-20 12:34N 37°47' W 122°21'2 2.3
2014-Dec-20 11:33N 37°48' W 122°24'5 5.3
2014-Dec-20 10:34N 37°48' W 122°30'3 3.4
2014-Dec-20 09:34N 37°47' W 122°35'9 8.6
2014-Dec-20 08:34N 37°48' W 122°24'0 0.0
2014-Dec-20 07:33N 37°48' W 122°24'0 0.0
2014-Dec-20 06:33N 37°48' W 122°24'3 2.6
2014-Dec-20 05:34N 37°47' W 122°21'3 2.6
2014-Dec-20 04:33N 37°48' W 122°24'0 0.0
2014-Dec-20 03:34N 37°48' W 122°24'4 3.7
2014-Dec-20 02:33N 37°50' W 122°28'4 3.7
2014-Dec-20 01:33N 37°48' W 122°24'4 3.9
2014-Dec-20 00:33N 37°49' W 122°19'4 3.9
2014-Dec-19 23:33N 37°48' W 122°24'3 3.5
2014-Dec-19 22:33N 37°46' W 122°20'1 1.1
2014-Dec-19 21:33N 37°47' W 122°21'2 2.4
2014-Dec-19 20:33N 37°48' W 122°24'0 0.0
2014-Dec-19 19:33N 37°48' W 122°24'2 1.7
2014-Dec-19 18:34N 37°48' W 122°22'2 1.8
2014-Dec-19 17:33N 37°48' W 122°24'0 0.2
2014-Dec-19 16:34N 37°48' W 122°24'0 0.0
2014-Dec-19 15:33N 37°48' W 122°24'0 0.0
2014-Dec-19 14:34N 37°48' W 122°24'0 0.0
2014-Dec-19 13:34N 37°48' W 122°24'0 0.0
2014-Dec-19 12:34N 37°48' W 122°24'0 0.0
2014-Dec-19 11:34N 37°48' W 122°24'2 1.8
2014-Dec-19 10:33N 37°48' W 122°21'1 1.3
2014-Dec-19 09:33N 37°46' W 122°21'3 2.7
2014-Dec-19 08:33N 37°48' W 122°24'1 1.3
2014-Dec-19 07:34N 37°48' W 122°22'1 1.3
2014-Dec-19 06:33N 37°48' W 122°24'2 1.9
2014-Dec-19 05:33N 37°47' W 122°21'2 1.9
2014-Dec-19 04:33N 37°48' W 122°24'0 0.0
2014-Dec-19 03:33N 37°48' W 122°24'0 0.0
2014-Dec-19 02:33N 37°48' W 122°24'0 0.0
2014-Dec-19 01:34N 37°48' W 122°24'2 2.3
2014-Dec-19 00:33N 37°48' W 122°21'2 2.3
2014-Dec-18 23:33N 37°48' W 122°24'3 2.6
2014-Dec-18 22:34N 37°47' W 122°21'4 4.1
2014-Dec-18 21:33N 37°43' W 122°20'4 4.0
2014-Dec-18 20:33N 37°47' W 122°22'2 1.7
2014-Dec-18 19:33N 37°48' W 122°24'0 0.0
2014-Dec-18 18:33N 37°48' W 122°24'0 0.0
2014-Dec-18 17:33N 37°48' W 122°24'1 1.2
2014-Dec-18 16:33N 37°49' W 122°25'7 6.8
2014-Dec-18 15:34N 37°44' W 122°19'6 5.6
2014-Dec-18 14:33N 37°48' W 122°24'0 0.0
2014-Dec-18 13:33N 37°48' W 122°24'2 1.5
2014-Dec-18 12:33N 37°47' W 122°22'0 0.5
2014-Dec-18 11:33N 37°47' W 122°22'1 1.3
2014-Dec-18 10:33N 37°47' W 122°20'3 3.0
2014-Dec-18 09:33N 37°48' W 122°24'0 0.1
2014-Dec-18 08:34N 37°48' W 122°24'3 2.7
2014-Dec-18 07:33N 37°46' W 122°21'6 6.2
2014-Dec-18 06:33N 37°51' W 122°27'7 7.1
2014-Dec-18 05:33N 37°46' W 122°20'4 3.6
2014-Dec-18 04:34N 37°48' W 122°24'5 4.6
2014-Dec-18 03:33N 37°44' W 122°20'5 4.6
2014-Dec-18 02:33N 37°48' W 122°24'0 0.0
2014-Dec-18 01:33N 37°48' W 122°24'3 2.6
2014-Dec-18 00:34N 37°48' W 122°21'4 3.6
2014-Dec-17 23:34N 37°50' W 122°24'1 1.2
2014-Dec-17 22:20N 37°49' W 122°25'5 6.3
2014-Dec-17 21:33N 37°45' W 122°21'4 3.8
2014-Dec-17 20:33N 37°48' W 122°24'0 0.0
2014-Dec-17 19:33N 37°48' W 122°24'0 0.0
2014-Dec-17 18:33N 37°48' W 122°24'0 0.0
2014-Dec-17 17:33N 37°48' W 122°24'0 0.0
2014-Dec-17 16:33N 37°48' W 122°24'0 0.0
2014-Dec-17 15:33N 37°48' W 122°24'0 0.0
2014-Dec-17 14:33N 37°48' W 122°24'1 1.0
2014-Dec-17 13:34N 37°48' W 122°23'1 1.0
2014-Dec-17 12:33N 37°48' W 122°24'0 0.0
2014-Dec-17 11:33N 37°48' W 122°24'0 0.0
2014-Dec-17 10:33N 37°48' W 122°24'0 0.0
2014-Dec-17 09:33N 37°48' W 122°24'0 0.0
2014-Dec-17 08:33N 37°48' W 122°24'0 0.0
2014-Dec-17 07:33N 37°48' W 122°24'0 0.0
2014-Dec-17 06:33N 37°48' W 122°24'0 0.0
2014-Dec-17 05:33N 37°48' W 122°24'2 1.9
2014-Dec-17 04:33N 37°49' W 122°26'5 5.4
2014-Dec-17 03:33N 37°49' W 122°19'1 0.6
2014-Dec-17 02:33N 37°49' W 122°20'1 0.9
2014-Dec-17 01:34N 37°48' W 122°19'1 1.4
2014-Dec-17 00:33N 37°49' W 122°19'4 3.7
2014-Dec-16 23:33N 37°46' W 122°22'1 0.8
2014-Dec-16 22:33N 37°46' W 122°21'3 3.3
2014-Dec-16 21:33N 37°48' W 122°24'2 2.1
2014-Dec-16 20:33N 37°48' W 122°21'2 2.2
2014-Dec-16 19:33N 37°48' W 122°24'1 1.3
2014-Dec-16 18:33N 37°49' W 122°25'0 0.2
2014-Dec-16 17:18N 37°49' W 122°25'3 4.6
2014-Dec-16 16:33N 37°46' W 122°22'2 2.1
2014-Dec-16 15:33N 37°48' W 122°23'5 5.4
2014-Dec-16 14:34N 37°43' W 122°21'3 2.8
2014-Dec-16 13:33N 37°46' W 122°21'3 3.1
2014-Dec-16 12:33N 37°48' W 122°24'0 0.0
2014-Dec-16 11:33N 37°48' W 122°24'0 0.0
2014-Dec-16 10:33N 37°48' W 122°24'0 0.0
2014-Dec-16 09:33N 37°48' W 122°24'0 0.0
2014-Dec-16 08:33N 37°48' W 122°24'0 0.0
2014-Dec-16 07:33N 37°48' W 122°24'0 0.0
2014-Dec-16 06:33N 37°48' W 122°24'0 0.0
2014-Dec-16 05:33N 37°48' W 122°24'0 0.0
2014-Dec-16 04:33N 37°48' W 122°24'0 0.0
2014-Dec-16 03:32N 37°48' W 122°24'5 4.7
2014-Dec-16 02:33N 37°44' W 122°21'5 3.8
2014-Dec-16 01:22N 37°48' W 122°24'0 0.0
2014-Dec-16 00:31N 37°48' W 122°24'0 0.0
2014-Dec-15 23:33N 37°48' W 122°24'0 0.0
2014-Dec-15 22:34N 37°48' W 122°24'0 0.0
2014-Dec-15 21:33N 37°48' W 122°24'0 0.0
2014-Dec-15 20:33N 37°48' W 122°24'0 0.0
2014-Dec-15 19:33N 37°48' W 122°24'0 0.0
2014-Dec-15 18:33N 37°48' W 122°24'0 0.0
2014-Dec-15 17:33N 37°48' W 122°24'0 0.0
2014-Dec-15 16:33N 37°48' W 122°24'0 0.0
2014-Dec-15 15:33N 37°48' W 122°24'5 5.1
2014-Dec-15 14:33N 37°47' W 122°17'5 5.1
2014-Dec-15 13:33N 37°48' W 122°24'0 0.0
2014-Dec-15 12:33N 37°48' W 122°24'3 3.0
2014-Dec-15 11:34N 37°49' W 122°20'3 2.9
2014-Dec-15 10:33N 37°48' W 122°24'0 0.0
2014-Dec-15 09:33N 37°48' W 122°24'0 0.4
2014-Dec-15 08:33N 37°48' W 122°23'0 0.4
2014-Dec-15 07:33N 37°48' W 122°24'0 0.0
2014-Dec-15 06:33N 37°48' W 122°24'3 2.8
2014-Dec-15 05:34N 37°46' W 122°22'3 2.7
2014-Dec-15 04:34N 37°48' W 122°24'0 0.0
2014-Dec-15 03:33N 37°48' W 122°24'0 0.5
2014-Dec-15 02:33N 37°48' W 122°23'3 2.8
2014-Dec-15 01:33N 37°46' W 122°20'6 5.9
2014-Dec-15 00:33N 37°49' W 122°27'0 0.1
2014-Dec-14 23:33N 37°49' W 122°27'5 5.2
2014-Dec-14 22:33N 37°47' W 122°21'2 2.5
2014-Dec-14 21:34N 37°45' W 122°21'4 4.3
2014-Dec-14 20:33N 37°48' W 122°24'0 0.0
2014-Dec-14 19:33N 37°48' W 122°24'0 0.0
2014-Dec-14 18:33N 37°48' W 122°24'3 2.7
2014-Dec-14 17:33N 37°49' W 122°27'3 2.7
2014-Dec-14 16:33N 37°48' W 122°24'2 1.6
2014-Dec-14 15:34N 37°47' W 122°22'2 1.6
2014-Dec-14 14:33N 37°48' W 122°24'0 0.0
2014-Dec-14 13:33N 37°48' W 122°24'0 0.0
2014-Dec-14 12:34N 37°48' W 122°24'0 0.0
2014-Dec-14 11:34N 37°48' W 122°24'0 0.0
2014-Dec-14 10:34N 37°48' W 122°24'2 2.0
2014-Dec-14 09:33N 37°49' W 122°26'6 6.0
2014-Dec-14 08:33N 37°45' W 122°21'4 4.0
2014-Dec-14 07:33N 37°48' W 122°23'0 0.5
2014-Dec-14 06:33N 37°48' W 122°24'0 0.0
2014-Dec-14 05:33N 37°48' W 122°24'0 0.0
2014-Dec-14 04:33N 37°48' W 122°24'7 6.7
2014-Dec-14 03:33N 37°48' W 122°32'7 6.7
2014-Dec-14 02:34N 37°48' W 122°24'2 1.9
2014-Dec-14 01:33N 37°48' W 122°21'2 2.2
2014-Dec-14 00:34N 37°49' W 122°24'3 2.7
2014-Dec-13 23:33N 37°48' W 122°21'1111.0
2014-Dec-13 22:33N 37°47' W 122°34'1111.1
2014-Dec-13 21:33N 37°46' W 122°20'3 3.2
2014-Dec-13 20:34N 37°48' W 122°24'3 3.5
2014-Dec-13 19:33N 37°48' W 122°19'3 3.5
2014-Dec-13 18:34N 37°48' W 122°24'0 0.0
2014-Dec-13 17:34N 37°48' W 122°24'2 2.1
2014-Dec-13 16:33N 37°46' W 122°22'3 3.4
2014-Dec-13 15:33N 37°49' W 122°25'1 0.8
2014-Dec-13 14:33N 37°49' W 122°24'1 1.0
2014-Dec-13 13:33N 37°48' W 122°24'1 1.2
2014-Dec-13 12:34N 37°47' W 122°23'4 3.6
2014-Dec-13 11:34N 37°49' W 122°27'6 5.5
2014-Dec-13 10:33N 37°46' W 122°21'3 3.1
2014-Dec-13 09:33N 37°48' W 122°24'0 0.0
2014-Dec-13 08:33N 37°48' W 122°24'3 2.5
2014-Dec-13 07:34N 37°48' W 122°21'3 2.5
2014-Dec-13 06:33N 37°48' W 122°24'2 1.9
2014-Dec-13 05:34N 37°48' W 122°21'2 1.8
2014-Dec-13 04:34N 37°48' W 122°24'0 0.0
2014-Dec-13 03:34N 37°48' W 122°24'2 2.2
2014-Dec-13 02:33N 37°47' W 122°21'2 1.7
2014-Dec-13 01:34N 37°48' W 122°23'2 1.8
2014-Dec-13 00:34N 37°48' W 122°21'2 2.3
2014-Dec-12 23:33N 37°48' W 122°24'4 3.7
2014-Dec-12 22:33N 37°45' W 122°21'2 2.1
2014-Dec-12 21:33N 37°47' W 122°21'1 1.2
2014-Dec-12 20:34N 37°47' W 122°23'3 3.1
2014-Dec-12 19:34N 37°45' W 122°20'1 0.8
2014-Dec-12 18:32N 37°45' W 122°21'3 3.3
2014-Dec-12 17:33N 37°48' W 122°19'4 4.0
2014-Dec-12 16:33N 37°48' W 122°24'1 1.3
2014-Dec-12 15:33N 37°49' W 122°25'4 3.6
2014-Dec-12 14:33N 37°48' W 122°21'3 2.9
2014-Dec-12 13:34N 37°45' W 122°21'3 3.4
2014-Dec-12 12:34N 37°48' W 122°24'0 0.0
2014-Dec-12 11:33N 37°48' W 122°24'5 5.0
2014-Dec-12 10:34N 37°44' W 122°20'5 4.9
2014-Dec-12 09:33N 37°48' W 122°24'0 0.0
2014-Dec-12 08:34N 37°48' W 122°24'0 0.0
2014-Dec-12 07:33N 37°48' W 122°24'0 0.0
2014-Dec-12 06:33N 37°48' W 122°24'0 0.0
2014-Dec-12 05:33N 37°48' W 122°24'0 0.0
2014-Dec-12 04:33N 37°48' W 122°24'0 0.0
2014-Dec-12 03:34N 37°48' W 122°24'0 0.0
2014-Dec-12 02:34N 37°48' W 122°24'4 3.9
2014-Dec-12 01:33N 37°48' W 122°19'3 2.9
2014-Dec-12 00:33N 37°48' W 122°23'1 1.1
2014-Dec-11 23:33N 37°48' W 122°24'0 0.3
2014-Dec-11 22:34N 37°48' W 122°23'4 4.3
2014-Dec-11 21:33N 37°44' W 122°21'4 3.8
2014-Dec-11 20:33N 37°48' W 122°18'  
Track history (hours):
 
Tides and Currents Weather Stations Pressure Air Temp Water Temp Dewpoint Dewpoint Depression Visibility Wind Speed Wind Dir Waves Ship Positions

P/v Golden Gate

Owner: San Francisco Bar Pilots Benevolent and Protective, San Francisco, CA. More information available from US FCC via Universal Licensing System and Coast Guard Vessel Documentation Center.

Last reported at 2014-Dec-21 19:33 UTC. Time now 2014-Dec-21 20:07 UTC.
Position N 37°48' W 122°24'.

Length 23 m; draft 2 m.

Type: Pilot. MMSI: 367370010.

Date/timePositionNaut miles runAvg speedWind from/ knotsBaromVisibWave heightAir tempDewpointWater temp
2014-Dec-21 19:33N 37°48' W 122°24'0 0.0
2014-Dec-21 18:33N 37°48' W 122°24'0 0.0
2014-Dec-21 17:34N 37°48' W 122°24'0 0.0
2014-Dec-21 16:33N 37°48' W 122°24'0 0.0
2014-Dec-21 15:33N 37°48' W 122°24'0 0.0
2014-Dec-21 14:34N 37°48' W 122°24'0 0.0
2014-Dec-21 13:34N 37°48' W 122°24'0 0.0
2014-Dec-21 12:33N 37°48' W 122°24'10 9.7
2014-Dec-21 11:34N 37°47' W 122°36'1312.4
2014-Dec-21 10:33N 37°45' W 122°20'4 4.2
2014-Dec-21 09:33N 37°48' W 122°24'0 0.0
2014-Dec-21 08:33N 37°48' W 122°24'0 0.0
2014-Dec-21 07:33N 37°48' W 122°24'0 0.0
2014-Dec-21 06:33N 37°48' W 122°24'0 0.0
2014-Dec-21 05:33N 37°48' W 122°24'0 0.0
2014-Dec-21 04:33N 37°48' W 122°24'0 0.0
2014-Dec-21 03:33N 37°48' W 122°24'0 0.0
2014-Dec-21 02:33N 37°48' W 122°24'4 4.3
2014-Dec-21 01:33N 37°45' W 122°20'4 4.3
2014-Dec-21 00:33N 37°48' W 122°24'0 0.0
2014-Dec-20 23:33N 37°48' W 122°24'0 0.0
2014-Dec-20 22:33N 37°48' W 122°24'0 0.0
2014-Dec-20 21:33N 37°48' W 122°24'0 0.0
2014-Dec-20 20:33N 37°48' W 122°24'1 1.1
2014-Dec-20 19:33N 37°49' W 122°24'1 0.9
2014-Dec-20 18:33N 37°49' W 122°25'4 4.0
2014-Dec-20 17:34N 37°46' W 122°21'3 2.8
2014-Dec-20 16:34N 37°48' W 122°24'4 3.5
2014-Dec-20 15:33N 37°49' W 122°19'0 0.2
2014-Dec-20 14:34N 37°49' W 122°19'4 3.6
2014-Dec-20 13:33N 37°48' W 122°24'2 2.3
2014-Dec-20 12:34N 37°47' W 122°21'2 2.3
2014-Dec-20 11:33N 37°48' W 122°24'5 5.3
2014-Dec-20 10:34N 37°48' W 122°30'3 3.4
2014-Dec-20 09:34N 37°47' W 122°35'9 8.6
2014-Dec-20 08:34N 37°48' W 122°24'0 0.0
2014-Dec-20 07:33N 37°48' W 122°24'0 0.0
2014-Dec-20 06:33N 37°48' W 122°24'3 2.6
2014-Dec-20 05:34N 37°47' W 122°21'3 2.6
2014-Dec-20 04:33N 37°48' W 122°24'0 0.0
2014-Dec-20 03:34N 37°48' W 122°24'4 3.7
2014-Dec-20 02:33N 37°50' W 122°28'4 3.7
2014-Dec-20 01:33N 37°48' W 122°24'4 3.9
2014-Dec-20 00:33N 37°49' W 122°19'4 3.9
2014-Dec-19 23:33N 37°48' W 122°24'3 3.5
2014-Dec-19 22:33N 37°46' W 122°20'1 1.1
2014-Dec-19 21:33N 37°47' W 122°21'2 2.4
2014-Dec-19 20:33N 37°48' W 122°24'0 0.0
2014-Dec-19 19:33N 37°48' W 122°24'2 1.7
2014-Dec-19 18:34N 37°48' W 122°22'2 1.8
2014-Dec-19 17:33N 37°48' W 122°24'0 0.2
2014-Dec-19 16:34N 37°48' W 122°24'0 0.0
2014-Dec-19 15:33N 37°48' W 122°24'0 0.0
2014-Dec-19 14:34N 37°48' W 122°24'0 0.0
2014-Dec-19 13:34N 37°48' W 122°24'0 0.0
2014-Dec-19 12:34N 37°48' W 122°24'0 0.0
2014-Dec-19 11:34N 37°48' W 122°24'2 1.8
2014-Dec-19 10:33N 37°48' W 122°21'1 1.3
2014-Dec-19 09:33N 37°46' W 122°21'3 2.7
2014-Dec-19 08:33N 37°48' W 122°24'1 1.3
2014-Dec-19 07:34N 37°48' W 122°22'1 1.3
2014-Dec-19 06:33N 37°48' W 122°24'2 1.9
2014-Dec-19 05:33N 37°47' W 122°21'2 1.9
2014-Dec-19 04:33N 37°48' W 122°24'0 0.0
2014-Dec-19 03:33N 37°48' W 122°24'0 0.0
2014-Dec-19 02:33N 37°48' W 122°24'0 0.0
2014-Dec-19 01:34N 37°48' W 122°24'2 2.3
2014-Dec-19 00:33N 37°48' W 122°21'2 2.3
2014-Dec-18 23:33N 37°48' W 122°24'3 2.6
2014-Dec-18 22:34N 37°47' W 122°21'4 4.1
2014-Dec-18 21:33N 37°43' W 122°20'4 4.0
2014-Dec-18 20:33N 37°47' W 122°22'2 1.7
2014-Dec-18 19:33N 37°48' W 122°24'0 0.0
2014-Dec-18 18:33N 37°48' W 122°24'0 0.0
2014-Dec-18 17:33N 37°48' W 122°24'1 1.2
2014-Dec-18 16:33N 37°49' W 122°25'7 6.8
2014-Dec-18 15:34N 37°44' W 122°19'6 5.6
2014-Dec-18 14:33N 37°48' W 122°24'0 0.0
2014-Dec-18 13:33N 37°48' W 122°24'2 1.5
2014-Dec-18 12:33N 37°47' W 122°22'0 0.5
2014-Dec-18 11:33N 37°47' W 122°22'1 1.3
2014-Dec-18 10:33N 37°47' W 122°20'3 3.0
2014-Dec-18 09:33N 37°48' W 122°24'0 0.1
2014-Dec-18 08:34N 37°48' W 122°24'3 2.7
2014-Dec-18 07:33N 37°46' W 122°21'6 6.2
2014-Dec-18 06:33N 37°51' W 122°27'7 7.1
2014-Dec-18 05:33N 37°46' W 122°20'4 3.6
2014-Dec-18 04:34N 37°48' W 122°24'5 4.6
2014-Dec-18 03:33N 37°44' W 122°20'5 4.6
2014-Dec-18 02:33N 37°48' W 122°24'0 0.0
2014-Dec-18 01:33N 37°48' W 122°24'3 2.6
2014-Dec-18 00:34N 37°48' W 122°21'4 3.6
2014-Dec-17 23:34N 37°50' W 122°24'1 1.2
2014-Dec-17 22:20N 37°49' W 122°25'5 6.3
2014-Dec-17 21:33N 37°45' W 122°21'4 3.8
2014-Dec-17 20:33N 37°48' W 122°24'0 0.0
2014-Dec-17 19:33N 37°48' W 122°24'0 0.0
2014-Dec-17 18:33N 37°48' W 122°24'0 0.0
2014-Dec-17 17:33N 37°48' W 122°24'0 0.0
2014-Dec-17 16:33N 37°48' W 122°24'0 0.0
2014-Dec-17 15:33N 37°48' W 122°24'0 0.0
2014-Dec-17 14:33N 37°48' W 122°24'1 1.0
2014-Dec-17 13:34N 37°48' W 122°23'1 1.0
2014-Dec-17 12:33N 37°48' W 122°24'0 0.0
2014-Dec-17 11:33N 37°48' W 122°24'0 0.0
2014-Dec-17 10:33N 37°48' W 122°24'0 0.0
2014-Dec-17 09:33N 37°48' W 122°24'0 0.0
2014-Dec-17 08:33N 37°48' W 122°24'0 0.0
2014-Dec-17 07:33N 37°48' W 122°24'0 0.0
2014-Dec-17 06:33N 37°48' W 122°24'0 0.0
2014-Dec-17 05:33N 37°48' W 122°24'2 1.9
2014-Dec-17 04:33N 37°49' W 122°26'5 5.4
2014-Dec-17 03:33N 37°49' W 122°19'1 0.6
2014-Dec-17 02:33N 37°49' W 122°20'1 0.9
2014-Dec-17 01:34N 37°48' W 122°19'1 1.4
2014-Dec-17 00:33N 37°49' W 122°19'4 3.7
2014-Dec-16 23:33N 37°46' W 122°22'1 0.8
2014-Dec-16 22:33N 37°46' W 122°21'3 3.3
2014-Dec-16 21:33N 37°48' W 122°24'2 2.1
2014-Dec-16 20:33N 37°48' W 122°21'2 2.2
2014-Dec-16 19:33N 37°48' W 122°24'1 1.3
2014-Dec-16 18:33N 37°49' W 122°25'0 0.2
2014-Dec-16 17:18N 37°49' W 122°25'3 4.6
2014-Dec-16 16:33N 37°46' W 122°22'2 2.1
2014-Dec-16 15:33N 37°48' W 122°23'5 5.4
2014-Dec-16 14:34N 37°43' W 122°21'3 2.8
2014-Dec-16 13:33N 37°46' W 122°21'3 3.1
2014-Dec-16 12:33N 37°48' W 122°24'0 0.0
2014-Dec-16 11:33N 37°48' W 122°24'0 0.0
2014-Dec-16 10:33N 37°48' W 122°24'0 0.0
2014-Dec-16 09:33N 37°48' W 122°24'0 0.0
2014-Dec-16 08:33N 37°48' W 122°24'0 0.0
2014-Dec-16 07:33N 37°48' W 122°24'0 0.0
2014-Dec-16 06:33N 37°48' W 122°24'0 0.0
2014-Dec-16 05:33N 37°48' W 122°24'0 0.0
2014-Dec-16 04:33N 37°48' W 122°24'0 0.0
2014-Dec-16 03:32N 37°48' W 122°24'5 4.7
2014-Dec-16 02:33N 37°44' W 122°21'5 3.8
2014-Dec-16 01:22N 37°48' W 122°24'0 0.0
2014-Dec-16 00:31N 37°48' W 122°24'0 0.0
2014-Dec-15 23:33N 37°48' W 122°24'0 0.0
2014-Dec-15 22:34N 37°48' W 122°24'0 0.0
2014-Dec-15 21:33N 37°48' W 122°24'0 0.0
2014-Dec-15 20:33N 37°48' W 122°24'0 0.0
2014-Dec-15 19:33N 37°48' W 122°24'0 0.0
2014-Dec-15 18:33N 37°48' W 122°24'0 0.0
2014-Dec-15 17:33N 37°48' W 122°24'0 0.0
2014-Dec-15 16:33N 37°48' W 122°24'0 0.0
2014-Dec-15 15:33N 37°48' W 122°24'5 5.1
2014-Dec-15 14:33N 37°47' W 122°17'5 5.1
2014-Dec-15 13:33N 37°48' W 122°24'0 0.0
2014-Dec-15 12:33N 37°48' W 122°24'3 3.0
2014-Dec-15 11:34N 37°49' W 122°20'3 2.9
2014-Dec-15 10:33N 37°48' W 122°24'0 0.0
2014-Dec-15 09:33N 37°48' W 122°24'0 0.4
2014-Dec-15 08:33N 37°48' W 122°23'0 0.4
2014-Dec-15 07:33N 37°48' W 122°24'0 0.0
2014-Dec-15 06:33N 37°48' W 122°24'3 2.8
2014-Dec-15 05:34N 37°46' W 122°22'3 2.7
2014-Dec-15 04:34N 37°48' W 122°24'0 0.0
2014-Dec-15 03:33N 37°48' W 122°24'0 0.5
2014-Dec-15 02:33N 37°48' W 122°23'3 2.8
2014-Dec-15 01:33N 37°46' W 122°20'6 5.9
2014-Dec-15 00:33N 37°49' W 122°27'0 0.1
2014-Dec-14 23:33N 37°49' W 122°27'5 5.2
2014-Dec-14 22:33N 37°47' W 122°21'2 2.5
2014-Dec-14 21:34N 37°45' W 122°21'4 4.3
2014-Dec-14 20:33N 37°48' W 122°24'0 0.0
2014-Dec-14 19:33N 37°48' W 122°24'0 0.0
2014-Dec-14 18:33N 37°48' W 122°24'3 2.7
2014-Dec-14 17:33N 37°49' W 122°27'3 2.7
2014-Dec-14 16:33N 37°48' W 122°24'2 1.6
2014-Dec-14 15:34N 37°47' W 122°22'2 1.6
2014-Dec-14 14:33N 37°48' W 122°24'0 0.0
2014-Dec-14 13:33N 37°48' W 122°24'0 0.0
2014-Dec-14 12:34N 37°48' W 122°24'0 0.0
2014-Dec-14 11:34N 37°48' W 122°24'0 0.0
2014-Dec-14 10:34N 37°48' W 122°24'2 2.0
2014-Dec-14 09:33N 37°49' W 122°26'6 6.0
2014-Dec-14 08:33N 37°45' W 122°21'4 4.0
2014-Dec-14 07:33N 37°48' W 122°23'0 0.5
2014-Dec-14 06:33N 37°48' W 122°24'0 0.0
2014-Dec-14 05:33N 37°48' W 122°24'0 0.0
2014-Dec-14 04:33N 37°48' W 122°24'7 6.7
2014-Dec-14 03:33N 37°48' W 122°32'7 6.7
2014-Dec-14 02:34N 37°48' W 122°24'2 1.9
2014-Dec-14 01:33N 37°48' W 122°21'2 2.2
2014-Dec-14 00:34N 37°49' W 122°24'3 2.7
2014-Dec-13 23:33N 37°48' W 122°21'1111.0
2014-Dec-13 22:33N 37°47' W 122°34'1111.1
2014-Dec-13 21:33N 37°46' W 122°20'3 3.2
2014-Dec-13 20:34N 37°48' W 122°24'3 3.5
2014-Dec-13 19:33N 37°48' W 122°19'3 3.5
2014-Dec-13 18:34N 37°48' W 122°24'0 0.0
2014-Dec-13 17:34N 37°48' W 122°24'2 2.1
2014-Dec-13 16:33N 37°46' W 122°22'3 3.4
2014-Dec-13 15:33N 37°49' W 122°25'1 0.8
2014-Dec-13 14:33N 37°49' W 122°24'1 1.0
2014-Dec-13 13:33N 37°48' W 122°24'1 1.2
2014-Dec-13 12:34N 37°47' W 122°23'4 3.6
2014-Dec-13 11:34N 37°49' W 122°27'6 5.5
2014-Dec-13 10:33N 37°46' W 122°21'3 3.1
2014-Dec-13 09:33N 37°48' W 122°24'0 0.0
2014-Dec-13 08:33N 37°48' W 122°24'3 2.5
2014-Dec-13 07:34N 37°48' W 122°21'3 2.5
2014-Dec-13 06:33N 37°48' W 122°24'2 1.9
2014-Dec-13 05:34N 37°48' W 122°21'2 1.8
2014-Dec-13 04:34N 37°48' W 122°24'0 0.0
2014-Dec-13 03:34N 37°48' W 122°24'2 2.2
2014-Dec-13 02:33N 37°47' W 122°21'2 1.7
2014-Dec-13 01:34N 37°48' W 122°23'2 1.8
2014-Dec-13 00:34N 37°48' W 122°21'2 2.3
2014-Dec-12 23:33N 37°48' W 122°24'4 3.7
2014-Dec-12 22:33N 37°45' W 122°21'2 2.1
2014-Dec-12 21:33N 37°47' W 122°21'1 1.2
2014-Dec-12 20:34N 37°47' W 122°23'3 3.1
2014-Dec-12 19:34N 37°45' W 122°20'1 0.8
2014-Dec-12 18:32N 37°45' W 122°21'3 3.3
2014-Dec-12 17:33N 37°48' W 122°19'4 4.0
2014-Dec-12 16:33N 37°48' W 122°24'1 1.3
2014-Dec-12 15:33N 37°49' W 122°25'4 3.6
2014-Dec-12 14:33N 37°48' W 122°21'3 2.9
2014-Dec-12 13:34N 37°45' W 122°21'3 3.4
2014-Dec-12 12:34N 37°48' W 122°24'0 0.0
2014-Dec-12 11:33N 37°48' W 122°24'5 5.0
2014-Dec-12 10:34N 37°44' W 122°20'5 4.9
2014-Dec-12 09:33N 37°48' W 122°24'0 0.0
2014-Dec-12 08:34N 37°48' W 122°24'0 0.0
2014-Dec-12 07:33N 37°48' W 122°24'0 0.0
2014-Dec-12 06:33N 37°48' W 122°24'0 0.0
2014-Dec-12 05:33N 37°48' W 122°24'0 0.0
2014-Dec-12 04:33N 37°48' W 122°24'0 0.0
2014-Dec-12 03:34N 37°48' W 122°24'0 0.0
2014-Dec-12 02:34N 37°48' W 122°24'4 3.9
2014-Dec-12 01:33N 37°48' W 122°19'3 2.9
2014-Dec-12 00:33N 37°48' W 122°23'1 1.1
2014-Dec-11 23:33N 37°48' W 122°24'0 0.3
2014-Dec-11 22:34N 37°48' W 122°23'4 4.3
2014-Dec-11 21:33N 37°44' W 122°21'4 3.8
2014-Dec-11 20:33N 37°48' W 122°18'  

Dump ship's entire track history